createdAt,value
2019-03-22T00:02:14.311Z,19.50
2019-03-22T00:04:44.955Z,19.50
2019-03-22T00:07:15.583Z,19.50
2019-03-22T00:09:46.039Z,19.50
2019-03-22T00:12:17.634Z,19.50
2019-03-22T00:14:48.304Z,19.50
2019-03-22T00:17:18.724Z,19.50
2019-03-22T00:19:49.221Z,19.50
2019-03-22T00:22:19.769Z,19.50
2019-03-22T00:24:50.356Z,19.50
2019-03-22T00:27:20.898Z,19.50
2019-03-22T00:29:51.435Z,19.50
2019-03-22T00:32:21.898Z,19.50
2019-03-22T00:34:52.355Z,19.50
2019-03-22T00:37:22.868Z,19.50
2019-03-22T00:39:53.344Z,19.50
2019-03-22T00:42:23.804Z,19.50
2019-03-22T00:44:54.317Z,19.50
2019-03-22T00:47:24.936Z,19.50
2019-03-22T00:49:55.471Z,19.50
2019-03-22T00:52:26.094Z,19.50
2019-03-22T00:54:56.596Z,19.50
2019-03-22T00:57:28.750Z,19.50
2019-03-22T00:59:59.335Z,19.50
2019-03-22T01:02:29.999Z,19.50
2019-03-22T01:05:00.599Z,19.50
2019-03-22T01:07:31.078Z,19.50
2019-03-22T01:10:01.723Z,19.50
2019-03-22T01:12:32.167Z,19.50
2019-03-22T01:15:02.626Z,19.50
2019-03-22T01:17:34.118Z,19.50
2019-03-22T01:20:05.069Z,19.50
2019-03-22T01:22:35.717Z,19.50
2019-03-22T01:25:06.903Z,19.50
2019-03-22T01:27:40.730Z,19.50
2019-03-22T01:30:10.966Z,19.50
2019-03-22T01:32:41.528Z,19.50
2019-03-22T01:35:12.773Z,19.50
2019-03-22T01:37:43.427Z,19.50
2019-03-22T01:40:15.284Z,19.50
2019-03-22T01:42:45.811Z,19.50
2019-03-22T01:45:17.204Z,19.50
2019-03-22T01:47:47.630Z,19.40
2019-03-22T01:50:18.691Z,19.50
2019-03-22T01:52:49.211Z,19.50
2019-03-22T01:55:19.796Z,19.40
2019-03-22T01:57:53.732Z,19.40
2019-03-22T02:00:22.891Z,19.40
2019-03-22T02:02:53.460Z,19.30
2019-03-22T02:05:24.093Z,19.30
2019-03-22T02:07:54.558Z,19.30
2019-03-22T02:10:25.279Z,19.30
2019-03-22T02:12:55.791Z,19.30
2019-03-22T02:15:26.406Z,19.30
2019-03-22T02:17:56.900Z,19.30
2019-03-22T02:20:27.456Z,19.30
2019-03-22T02:22:58.100Z,19.30
2019-03-22T02:25:28.602Z,19.30
2019-03-22T02:28:04.128Z,19.30
2019-03-22T02:30:31.494Z,19.30
2019-03-22T02:33:01.993Z,19.30
2019-03-22T02:35:32.461Z,19.20
2019-03-22T02:38:04.053Z,19.20
2019-03-22T02:40:34.631Z,19.30
2019-03-22T02:43:05.174Z,19.30
2019-03-22T02:45:35.631Z,19.30
2019-03-22T02:48:06.243Z,19.30
2019-03-22T02:50:36.829Z,19.20
2019-03-22T02:53:07.351Z,19.20
2019-03-22T02:55:37.805Z,19.20
2019-03-22T02:58:19.906Z,19.20
2019-03-22T03:00:40.585Z,19.20
2019-03-22T03:03:11.114Z,19.20
2019-03-22T03:05:41.646Z,19.20
2019-03-22T03:08:12.127Z,19.20
2019-03-22T03:10:42.642Z,19.20
2019-03-22T03:13:13.092Z,19.20
2019-03-22T03:15:43.683Z,19.20
2019-03-22T03:18:14.330Z,19.20
2019-03-22T03:20:44.978Z,19.20
2019-03-22T03:23:15.426Z,19.20
2019-03-22T03:25:45.913Z,19.20
2019-03-22T03:28:16.385Z,19.10
2019-03-22T03:30:46.860Z,19.10
2019-03-22T03:33:17.557Z,19.00
2019-03-22T03:35:48.079Z,19.00
2019-03-22T03:38:18.533Z,19.00
2019-03-22T03:40:49.268Z,19.00
2019-03-22T03:43:19.721Z,19.00
2019-03-22T03:45:50.161Z,19.00
2019-03-22T03:48:20.757Z,19.00
2019-03-22T03:50:51.342Z,19.00
2019-03-22T03:53:21.824Z,19.00
2019-03-22T03:55:52.270Z,19.10
2019-03-22T03:58:22.807Z,19.10
2019-03-22T04:00:53.317Z,19.10
2019-03-22T04:03:23.791Z,19.10
2019-03-22T04:05:54.260Z,19.10
2019-03-22T04:08:24.753Z,19.10
2019-03-22T04:10:55.234Z,19.10
2019-03-22T04:13:25.736Z,19.10
2019-03-22T04:15:56.163Z,19.10
2019-03-22T04:18:26.675Z,19.10
2019-03-22T04:20:57.242Z,19.10
2019-03-22T04:23:27.893Z,19.10
2019-03-22T04:25:58.303Z,19.00
2019-03-22T04:28:28.832Z,19.10
2019-03-22T04:30:59.486Z,19.00
2019-03-22T04:33:29.974Z,19.00
2019-03-22T04:36:00.545Z,19.10
2019-03-22T04:38:31.001Z,19.10
2019-03-22T04:41:01.494Z,19.10
2019-03-22T04:43:32.090Z,19.10
2019-03-22T04:46:02.932Z,19.10
2019-03-22T04:48:37.152Z,19.10
2019-03-22T04:51:08.654Z,19.10
2019-03-22T04:53:49.327Z,19.00
2019-03-22T04:56:21.579Z,19.00
2019-03-22T04:58:53.378Z,19.00
2019-03-22T05:01:24.774Z,18.90
2019-03-22T05:03:55.739Z,18.90
2019-03-22T05:06:27.014Z,18.90
2019-03-22T05:08:59.969Z,18.90
2019-03-22T05:11:31.331Z,18.90
2019-03-22T05:14:04.147Z,18.80
2019-03-22T05:16:37.611Z,18.80
2019-03-22T05:19:10.642Z,18.80
2019-03-22T05:21:41.640Z,18.80
2019-03-22T05:24:13.075Z,18.80
2019-03-22T05:26:45.823Z,18.80
2019-03-22T05:29:17.034Z,18.80
2019-03-22T05:32:16.078Z,18.80
2019-03-22T05:34:46.581Z,18.90
2019-03-22T05:37:17.065Z,18.80
2019-03-22T05:39:48.522Z,18.80
2019-03-22T05:42:18.987Z,18.80
2019-03-22T05:44:49.447Z,18.80
2019-03-22T05:47:19.978Z,18.80
2019-03-22T05:49:50.442Z,18.80
2019-03-22T05:52:21.057Z,18.80
2019-03-22T05:54:51.523Z,18.80
2019-03-22T05:57:21.986Z,18.80
2019-03-22T05:59:52.563Z,18.80
2019-03-22T06:02:23.035Z,18.80
2019-03-22T06:04:53.525Z,18.80
2019-03-22T06:07:24.054Z,18.80
2019-03-22T06:09:54.648Z,18.70
2019-03-22T06:12:25.297Z,18.70
2019-03-22T06:14:55.886Z,18.70
2019-03-22T06:17:26.416Z,18.70
2019-03-22T06:19:56.863Z,18.70
2019-03-22T06:22:27.482Z,18.70
2019-03-22T06:24:57.934Z,18.70
2019-03-22T06:27:28.476Z,18.70
2019-03-22T06:29:58.931Z,18.70
2019-03-22T06:32:29.482Z,18.70
2019-03-22T06:35:00.361Z,18.70
2019-03-22T06:37:30.969Z,18.70
2019-03-22T06:40:01.544Z,18.70
2019-03-22T06:42:32.225Z,18.70
2019-03-22T06:45:02.721Z,18.70
2019-03-22T06:47:33.168Z,18.70
2019-03-22T06:50:03.794Z,18.70
2019-03-22T06:52:34.254Z,18.80
2019-03-22T06:55:04.873Z,18.70
2019-03-22T06:57:35.373Z,18.80
2019-03-22T07:00:07.483Z,18.80
2019-03-22T07:02:38.306Z,18.80
2019-03-22T07:05:09.040Z,18.80
2019-03-22T07:07:39.588Z,18.80
2019-03-22T07:10:10.314Z,18.70
2019-03-22T07:12:40.729Z,18.80
2019-03-22T07:15:11.513Z,18.80
2019-03-22T07:17:41.975Z,18.80
2019-03-22T07:20:12.619Z,18.70
2019-03-22T07:22:43.152Z,18.80
2019-03-22T07:25:13.803Z,18.70
2019-03-22T07:27:44.506Z,18.80
2019-03-22T07:30:19.085Z,18.70
2019-03-22T07:32:47.506Z,18.70
2019-03-22T07:35:18.179Z,18.70
2019-03-22T07:37:48.748Z,18.60
2019-03-22T07:40:19.402Z,18.60
2019-03-22T07:42:49.966Z,18.60
2019-03-22T07:45:20.382Z,18.60
2019-03-22T07:47:50.800Z,18.60
2019-03-22T07:50:21.353Z,18.60
2019-03-22T07:52:51.796Z,18.50
2019-03-22T07:55:22.259Z,18.60
2019-03-22T07:57:53.015Z,18.60
2019-03-22T08:00:30.751Z,18.60
2019-03-22T08:02:55.724Z,18.60
2019-03-22T08:05:26.161Z,18.60
2019-03-22T08:07:56.695Z,18.60
2019-03-22T08:10:27.429Z,18.60
2019-03-22T08:12:57.889Z,18.60
2019-03-22T08:15:33.171Z,18.60
2019-03-22T08:18:03.860Z,18.60
2019-03-22T08:20:34.713Z,18.60
2019-03-22T08:23:11.209Z,18.60
2019-03-22T08:25:43.551Z,18.60
2019-03-22T08:28:13.820Z,18.60
2019-03-22T08:30:44.335Z,18.60
2019-03-22T08:33:15.022Z,18.60
2019-03-22T08:35:45.559Z,18.60
2019-03-22T08:38:17.492Z,18.60
2019-03-22T08:40:48.416Z,18.70
2019-03-22T08:43:19.044Z,18.60
2019-03-22T08:45:49.627Z,18.60
2019-03-22T08:48:20.193Z,18.60
2019-03-22T08:50:50.618Z,18.60
2019-03-22T08:53:21.282Z,18.60
2019-03-22T08:55:51.983Z,18.60
2019-03-22T08:58:22.494Z,18.70
2019-03-22T09:00:57.698Z,18.70
2019-03-22T09:03:25.472Z,18.70
2019-03-22T09:05:55.884Z,18.70
2019-03-22T09:08:26.484Z,18.70
2019-03-22T09:10:57.138Z,18.70
2019-03-22T09:13:27.693Z,18.70
2019-03-22T09:15:58.149Z,18.70
2019-03-22T09:18:28.682Z,18.70
2019-03-22T09:20:59.211Z,18.70
2019-03-22T09:23:29.727Z,18.70
2019-03-22T09:26:00.380Z,18.70
2019-03-22T09:28:30.894Z,18.70
2019-03-22T09:31:10.251Z,18.70
2019-03-22T09:33:33.695Z,18.70
2019-03-22T09:36:04.418Z,18.70
2019-03-22T09:38:34.953Z,18.70
2019-03-22T09:41:05.528Z,18.60
2019-03-22T09:43:36.115Z,18.60
2019-03-22T09:46:06.682Z,18.60
2019-03-22T09:48:37.424Z,18.60
2019-03-22T09:51:07.871Z,18.60
2019-03-22T09:53:38.309Z,18.60
2019-03-22T09:56:08.797Z,18.70
2019-03-22T09:58:39.455Z,18.70
2019-03-22T10:01:22.875Z,18.70
2019-03-22T10:03:42.726Z,18.70
2019-03-22T10:06:13.347Z,18.70
2019-03-22T10:08:43.782Z,18.70
2019-03-22T10:11:14.512Z,18.70
2019-03-22T10:13:48.014Z,18.70
2019-03-22T10:16:17.339Z,18.70
2019-03-22T10:18:47.851Z,18.70
2019-03-22T10:21:22.591Z,18.70
2019-03-22T10:23:50.667Z,18.70
2019-03-22T10:26:21.146Z,18.70
2019-03-22T10:28:51.678Z,18.70
2019-03-22T10:31:22.184Z,18.70
2019-03-22T10:33:52.667Z,18.70
2019-03-22T10:36:23.193Z,18.80
2019-03-22T10:38:53.711Z,18.70
2019-03-22T10:41:24.183Z,18.80
2019-03-22T10:43:54.666Z,18.80
2019-03-22T10:46:25.191Z,18.80
2019-03-22T10:48:55.778Z,18.80
2019-03-22T10:51:26.515Z,18.80
2019-03-22T10:53:57.214Z,18.80
2019-03-22T10:56:27.688Z,18.80
2019-03-22T10:58:58.276Z,18.80
2019-03-22T11:01:28.767Z,18.80
2019-03-22T11:03:59.553Z,18.80
2019-03-22T11:06:30.191Z,18.80
2019-03-22T11:09:00.713Z,18.80
2019-03-22T11:11:31.472Z,18.80
2019-03-22T11:14:02.066Z,18.80
2019-03-22T11:16:32.682Z,18.80
2019-03-22T11:19:03.283Z,18.80
2019-03-22T11:21:33.836Z,18.90
2019-03-22T11:24:04.618Z,18.80
2019-03-22T11:26:35.223Z,18.80
2019-03-22T11:29:05.943Z,18.90
2019-03-22T11:31:40.131Z,18.90
2019-03-22T11:34:09.068Z,18.90
2019-03-22T11:36:39.684Z,18.90
2019-03-22T11:39:15.775Z,18.90
2019-03-22T11:41:44.981Z,18.90
2019-03-22T11:44:15.596Z,18.90
2019-03-22T11:46:46.164Z,18.90
2019-03-22T11:49:16.771Z,18.90
2019-03-22T11:51:47.280Z,18.90
2019-03-22T11:54:17.747Z,18.90
2019-03-22T11:56:48.377Z,18.90
2019-03-22T11:59:18.962Z,18.90
2019-03-22T12:01:49.559Z,18.90
2019-03-22T12:04:20.092Z,18.90
2019-03-22T12:06:50.670Z,18.90
2019-03-22T12:09:22.950Z,18.90
2019-03-22T12:11:54.297Z,18.90
2019-03-22T12:14:24.863Z,18.90
2019-03-22T12:16:56.733Z,18.90
2019-03-22T12:19:27.575Z,18.90
2019-03-22T12:21:58.079Z,18.90
2019-03-22T12:24:28.528Z,18.90
2019-03-22T12:26:59.044Z,18.90
2019-03-22T12:29:29.836Z,18.90
2019-03-22T12:32:00.449Z,18.90
2019-03-22T12:34:30.905Z,19.00
2019-03-22T12:37:01.394Z,19.00
2019-03-22T12:39:32.065Z,19.00
2019-03-22T12:42:02.593Z,19.00
2019-03-22T12:44:33.147Z,19.00
2019-03-22T12:47:03.576Z,19.00
2019-03-22T12:49:34.254Z,19.00
2019-03-22T12:52:04.890Z,19.00
2019-03-22T12:54:35.330Z,19.00
2019-03-22T12:57:05.922Z,19.00
2019-03-22T12:59:36.527Z,19.00
2019-03-22T13:02:07.017Z,19.00
2019-03-22T13:04:37.552Z,19.00
2019-03-22T13:07:09.161Z,19.00
2019-03-22T13:09:39.767Z,19.00
2019-03-22T13:12:10.467Z,19.00
2019-03-22T13:14:40.911Z,19.00
2019-03-22T13:17:11.567Z,19.00
2019-03-22T13:19:42.084Z,19.00
2019-03-22T13:22:12.564Z,19.00
2019-03-22T13:24:43.025Z,19.00
2019-03-22T13:27:13.551Z,19.00
2019-03-22T13:29:44.030Z,19.10
2019-03-22T13:32:14.513Z,19.10
2019-03-22T13:34:45.010Z,19.10
2019-03-22T13:37:15.437Z,19.10
2019-03-22T13:39:45.921Z,19.10
2019-03-22T13:42:16.591Z,19.10
2019-03-22T13:44:47.094Z,19.10
2019-03-22T13:47:17.544Z,19.10
2019-03-22T13:49:47.962Z,19.10
2019-03-22T13:52:18.487Z,19.10
2019-03-22T13:54:48.946Z,19.10
2019-03-22T13:57:19.529Z,19.10
2019-03-22T13:59:50.041Z,19.10
2019-03-22T14:02:20.539Z,19.20
2019-03-22T14:04:51.086Z,19.20
2019-03-22T14:07:21.629Z,19.20
2019-03-22T14:09:52.182Z,19.20
2019-03-22T14:12:22.663Z,19.20
2019-03-22T14:14:53.360Z,19.20
2019-03-22T14:17:23.867Z,19.20
2019-03-22T14:19:54.345Z,19.20
2019-03-22T14:22:24.802Z,19.20
2019-03-22T14:24:55.314Z,19.20
2019-03-22T14:27:25.757Z,19.20
2019-03-22T14:29:56.503Z,19.20
2019-03-22T14:32:27.251Z,19.20
2019-03-22T14:34:57.786Z,19.20
2019-03-22T14:37:28.259Z,19.20
2019-03-22T14:39:58.832Z,19.20
2019-03-22T14:42:29.308Z,19.20
2019-03-22T14:44:59.803Z,19.20
2019-03-22T14:47:30.343Z,19.20
2019-03-22T14:50:00.797Z,19.20
2019-03-22T14:52:31.327Z,19.20
2019-03-22T14:55:01.915Z,19.20
2019-03-22T14:57:32.400Z,19.20
2019-03-22T15:00:03.194Z,19.20
2019-03-22T15:02:33.799Z,19.20
2019-03-22T15:05:04.392Z,19.30
2019-03-22T15:07:34.891Z,19.30
2019-03-22T15:10:06.057Z,19.30
2019-03-22T15:12:36.674Z,19.30
2019-03-22T15:15:29.729Z,19.30
2019-03-22T15:18:28.455Z,19.30
2019-03-22T15:21:28.155Z,19.30
2019-03-22T15:24:23.706Z,19.30
2019-03-22T15:27:22.154Z,19.30
2019-03-22T15:30:10.877Z,19.30
2019-03-22T15:33:12.578Z,19.30
2019-03-22T15:36:01.277Z,19.30
2019-03-22T15:39:03.309Z,19.30
2019-03-22T15:41:34.113Z,19.30
2019-03-22T15:44:04.829Z,19.30
2019-03-22T15:46:35.361Z,19.30
2019-03-22T15:49:06.168Z,19.40
2019-03-22T15:51:36.890Z,19.40
2019-03-22T15:54:07.494Z,19.50
2019-03-22T15:56:38.035Z,19.50
2019-03-22T15:59:08.638Z,19.50
2019-03-22T16:01:39.244Z,19.50
2019-03-22T16:04:09.970Z,19.60
2019-03-22T16:06:40.505Z,19.60
2019-03-22T16:09:11.026Z,19.60
2019-03-22T16:11:41.683Z,19.60
2019-03-22T16:14:12.192Z,19.60
2019-03-22T16:16:42.791Z,19.60
2019-03-22T16:19:13.511Z,19.60
2019-03-22T16:21:43.997Z,19.70
2019-03-22T16:24:14.558Z,19.70
2019-03-22T16:26:45.060Z,19.70
2019-03-22T16:29:15.646Z,19.70
2019-03-22T16:31:46.323Z,19.70
2019-03-22T16:34:16.838Z,19.70
2019-03-22T16:36:47.470Z,19.70
2019-03-22T16:39:17.879Z,19.70
2019-03-22T16:41:49.592Z,19.70
2019-03-22T16:44:20.013Z,19.70
2019-03-22T16:46:50.611Z,19.70
2019-03-22T16:49:21.093Z,19.70
2019-03-22T16:51:51.561Z,19.80
2019-03-22T16:54:22.066Z,19.80
2019-03-22T16:56:52.798Z,19.80
2019-03-22T16:59:23.242Z,19.80
2019-03-22T17:01:53.890Z,19.80
2019-03-22T17:04:24.363Z,19.80
2019-03-22T17:06:54.849Z,19.80
2019-03-22T17:09:25.349Z,19.80
2019-03-22T17:11:55.960Z,19.80
2019-03-22T17:14:26.430Z,19.80
2019-03-22T17:16:56.900Z,19.80
2019-03-22T17:19:27.527Z,19.80
2019-03-22T17:21:58.092Z,19.80
2019-03-22T17:24:28.802Z,19.80
2019-03-22T17:26:59.374Z,19.80
2019-03-22T17:29:29.816Z,19.90
2019-03-22T17:32:00.294Z,19.80
2019-03-22T17:34:30.818Z,19.90
2019-03-22T17:37:01.386Z,19.90
2019-03-22T17:39:31.832Z,19.90
2019-03-22T17:42:02.580Z,19.90
2019-03-22T17:44:33.145Z,19.90
2019-03-22T17:47:03.735Z,19.90
2019-03-22T17:49:34.198Z,19.90
2019-03-22T17:52:05.456Z,19.90
2019-03-22T17:54:36.186Z,19.90
2019-03-22T17:57:06.711Z,19.90
2019-03-22T17:59:37.252Z,19.90
2019-03-22T18:02:07.912Z,19.90
2019-03-22T18:04:38.400Z,19.90
2019-03-22T18:07:09.014Z,19.90
2019-03-22T18:09:39.504Z,19.90
2019-03-22T18:12:10.013Z,20.00
2019-03-22T18:14:40.729Z,19.90
2019-03-22T18:17:12.243Z,20.00
2019-03-22T18:19:42.846Z,20.00
2019-03-22T18:22:13.401Z,20.00
2019-03-22T18:24:43.891Z,20.00
2019-03-22T18:27:14.532Z,20.00
2019-03-22T18:29:45.170Z,20.00
2019-03-22T18:32:15.665Z,20.00
2019-03-22T18:34:46.087Z,20.00
2019-03-22T18:37:16.648Z,20.00
2019-03-22T18:39:47.110Z,20.00
2019-03-22T18:42:17.611Z,20.00
2019-03-22T18:44:48.149Z,20.00
2019-03-22T18:47:18.774Z,20.00
2019-03-22T18:49:49.277Z,20.00
2019-03-22T18:52:19.805Z,20.00
2019-03-22T18:54:50.312Z,20.00
2019-03-22T18:57:20.807Z,20.00
2019-03-22T18:59:51.272Z,20.00
2019-03-22T19:02:21.907Z,20.10
2019-03-22T19:04:52.358Z,20.10
2019-03-22T19:07:22.770Z,20.00
2019-03-22T19:09:53.422Z,20.00
2019-03-22T19:12:23.932Z,20.00
2019-03-22T19:14:54.577Z,20.00
2019-03-22T19:17:25.188Z,20.00
2019-03-22T19:19:55.599Z,20.10
2019-03-22T19:22:26.025Z,20.10
2019-03-22T19:24:56.539Z,20.00
2019-03-22T19:27:27.198Z,20.10
2019-03-22T19:29:57.757Z,20.10
2019-03-22T19:32:28.333Z,20.10
2019-03-22T19:34:58.774Z,20.10
2019-03-22T19:37:29.436Z,20.10
2019-03-22T19:40:00.316Z,20.10
2019-03-22T19:42:30.805Z,20.10
2019-03-22T19:45:01.280Z,20.10
2019-03-22T19:47:31.790Z,20.10
2019-03-22T19:50:02.317Z,20.10
2019-03-22T19:52:32.814Z,20.10
2019-03-22T19:55:03.607Z,20.10
2019-03-22T19:57:34.287Z,20.10
2019-03-22T20:00:05.126Z,20.10
2019-03-22T20:02:35.883Z,20.10
2019-03-22T20:05:07.706Z,20.20
2019-03-22T20:07:38.348Z,20.20
2019-03-22T20:10:10.049Z,20.20
2019-03-22T20:12:41.119Z,20.10
2019-03-22T20:15:11.984Z,20.20
2019-03-22T20:17:42.585Z,20.10
2019-03-22T20:20:13.529Z,20.10
2019-03-22T20:22:44.000Z,20.10
2019-03-22T20:25:14.824Z,20.10
2019-03-22T20:27:45.592Z,20.10
2019-03-22T20:30:16.827Z,20.10
2019-03-22T20:32:47.905Z,20.10
2019-03-22T20:35:18.914Z,20.10
2019-03-22T20:37:49.542Z,20.10
2019-03-22T20:40:20.349Z,20.10
2019-03-22T20:42:51.019Z,20.10
2019-03-22T20:45:24.409Z,20.10
2019-03-22T20:47:54.328Z,20.20
2019-03-22T20:50:35.118Z,20.20
2019-03-22T20:52:57.308Z,20.20
2019-03-22T20:55:27.954Z,20.10
2019-03-22T20:57:58.833Z,20.20
2019-03-22T21:00:29.420Z,20.10
2019-03-22T21:03:01.225Z,20.10
2019-03-22T21:05:32.098Z,20.20
2019-03-22T21:08:02.774Z,20.20
2019-03-22T21:10:33.310Z,20.20
2019-03-22T21:13:04.013Z,20.20
2019-03-22T21:15:34.470Z,20.20
2019-03-22T21:18:05.016Z,20.20
2019-03-22T21:20:35.524Z,20.20
2019-03-22T21:23:06.116Z,20.10
2019-03-22T21:25:36.628Z,20.20
2019-03-22T21:28:07.292Z,20.20
2019-03-22T21:30:37.805Z,20.10
2019-03-22T21:33:08.379Z,20.10
2019-03-22T21:35:38.914Z,20.10
2019-03-22T21:38:11.318Z,20.20
2019-03-22T21:40:42.044Z,20.20
2019-03-22T21:43:12.662Z,20.20
2019-03-22T21:45:43.093Z,20.10
2019-03-22T21:48:13.639Z,20.20
2019-03-22T21:50:44.190Z,20.20
2019-03-22T21:53:14.814Z,20.20
2019-03-22T21:55:45.585Z,20.20
2019-03-22T21:58:16.101Z,20.20
2019-03-22T22:00:46.527Z,20.20
2019-03-22T22:03:17.069Z,20.20
2019-03-22T22:05:48.259Z,20.20
2019-03-22T22:08:18.898Z,20.20
2019-03-22T22:10:59.358Z,20.20
2019-03-22T22:13:21.716Z,20.20
2019-03-22T22:15:52.254Z,20.10
2019-03-22T22:18:22.712Z,20.10
2019-03-22T22:20:53.214Z,20.10
2019-03-22T22:23:23.738Z,20.10
2019-03-22T22:25:54.284Z,20.10
2019-03-22T22:28:24.817Z,20.10
2019-03-22T22:30:55.312Z,20.10
2019-03-22T22:33:25.865Z,20.10
2019-03-22T22:35:58.879Z,20.00
2019-03-22T22:38:28.535Z,20.00
2019-03-22T22:40:59.048Z,20.00
2019-03-22T22:43:29.519Z,20.00
2019-03-22T22:45:59.969Z,20.00
2019-03-22T22:48:30.504Z,20.00
2019-03-22T22:51:01.117Z,20.00
2019-03-22T22:53:31.682Z,20.00
2019-03-22T22:56:02.192Z,20.00
2019-03-22T22:58:32.807Z,20.00
2019-03-22T23:01:03.323Z,20.00
2019-03-22T23:03:34.006Z,20.00
2019-03-22T23:06:09.342Z,20.00
2019-03-22T23:08:36.789Z,20.00
2019-03-22T23:11:07.370Z,20.00
2019-03-22T23:13:37.855Z,20.00
2019-03-22T23:16:08.481Z,20.00
2019-03-22T23:18:39.171Z,20.00
2019-03-22T23:21:09.658Z,20.00
2019-03-22T23:23:40.188Z,20.00
2019-03-22T23:26:10.671Z,20.00
2019-03-22T23:28:41.152Z,20.00
2019-03-22T23:31:11.714Z,20.00
2019-03-22T23:33:42.159Z,20.00
2019-03-22T23:36:20.185Z,20.00
2019-03-22T23:38:45.002Z,20.00
2019-03-22T23:41:15.606Z,20.00
2019-03-22T23:43:46.117Z,20.00
2019-03-22T23:46:16.779Z,20.00
2019-03-22T23:48:47.189Z,20.00
2019-03-22T23:51:17.619Z,20.00
2019-03-22T23:53:48.137Z,20.00
2019-03-22T23:56:18.711Z,20.00
2019-03-22T23:58:49.288Z,20.00
